Terminal Aerodrome Forecast
Issued by NWS

Home | Current Version | Previous Version | Text Only | Print | Product List | Glossary On
Versions: 1 2 3 4 5 6 7 8 9 10 11 12 13 14 15 16 17 18
000
FTUS44 KTSA 201253 AAB
TAFXNA
TAF AMD
KXNA 201253Z 2013/2112 16011G20KT P6SM -RA BKN025
      TEMPO 2013/2017 3SM TSRA BR BKN015CB
     FM201800 20009KT P6SM BKN100
      TEMPO 2018/2022 5SM -SHRA BKN025
     FM210100 20003KT P6SM BKN100
     FM210600 VRB03KT P6SM SCT100 SCT250
     FM210900 00000KT 2SM BR SCT250=

USA.gov is the U.S. government's official web portal to all federal, state and local government web resources and services.